createdAt,value
2023-05-19T00:00:01.429Z,11.27
2023-05-19T00:02:33.682Z,11.37
2023-05-19T00:05:03.555Z,11.38
2023-05-19T00:07:33.686Z,11.31
2023-05-19T00:10:00.586Z,11.23
2023-05-19T00:12:29.416Z,11.30
2023-05-19T00:15:01.632Z,11.32
2023-05-19T00:17:31.172Z,11.29
2023-05-19T00:19:59.896Z,11.29
2023-05-19T00:22:28.652Z,11.27
2023-05-19T00:24:55.427Z,11.28
2023-05-19T00:27:22.018Z,11.25
2023-05-19T00:29:50.819Z,11.37
2023-05-19T00:32:17.478Z,11.33
2023-05-19T00:34:44.130Z,11.28
2023-05-19T00:37:12.892Z,11.27
2023-05-19T00:39:41.912Z,11.19
2023-05-19T00:42:12.175Z,11.16
2023-05-19T00:44:41.709Z,11.04
2023-05-19T00:47:08.748Z,10.97
2023-05-19T00:49:36.143Z,11.00
2023-05-19T00:52:06.461Z,11.01
2023-05-19T00:54:36.547Z,10.89
2023-05-19T00:57:05.837Z,10.89
2023-05-19T00:59:32.437Z,10.84
2023-05-19T01:02:03.017Z,10.88
2023-05-19T01:04:34.915Z,10.82
2023-05-19T01:07:07.581Z,10.86
2023-05-19T01:09:34.139Z,10.83
2023-05-19T01:12:01.459Z,10.88
2023-05-19T01:14:29.010Z,10.81
2023-05-19T01:17:08.185Z,10.87
2023-05-19T01:19:46.927Z,10.97
2023-05-19T01:22:46.623Z,10.92
2023-05-19T01:25:27.526Z,10.85
2023-05-19T01:28:22.749Z,10.87
2023-05-19T01:30:55.582Z,10.83
2023-05-19T01:33:24.403Z,10.81
2023-05-19T01:35:53.922Z,10.83
2023-05-19T01:38:27.238Z,10.82
2023-05-19T01:40:54.903Z,10.89
2023-05-19T01:43:26.711Z,10.80
2023-05-19T01:45:58.894Z,10.80
2023-05-19T01:48:29.962Z,10.79
2023-05-19T01:50:57.441Z,10.82
2023-05-19T01:53:27.058Z,10.79
2023-05-19T01:55:55.835Z,10.73
2023-05-19T01:58:47.501Z,10.73
2023-05-19T02:01:26.280Z,10.66
2023-05-19T02:04:32.498Z,10.68
2023-05-19T02:07:05.645Z,10.68
2023-05-19T02:09:41.137Z,10.69
2023-05-19T02:12:26.603Z,10.61
2023-05-19T02:14:55.070Z,10.72
2023-05-19T02:17:25.684Z,10.67
2023-05-19T02:19:54.483Z,10.59
2023-05-19T02:22:21.134Z,10.63
2023-05-19T02:24:51.714Z,10.66
2023-05-19T02:27:18.793Z,10.59
2023-05-19T02:29:45.402Z,10.49
2023-05-19T02:32:17.800Z,10.53
2023-05-19T02:34:48.389Z,10.56
2023-05-19T02:37:18.183Z,10.50
2023-05-19T02:39:50.423Z,10.54
2023-05-19T02:42:20.386Z,10.46
2023-05-19T02:44:47.074Z,10.48
2023-05-19T02:47:13.810Z,10.44
2023-05-19T02:49:44.480Z,10.47
2023-05-19T02:52:13.289Z,10.43
2023-05-19T02:54:39.872Z,10.42
2023-05-19T02:57:08.693Z,10.37
2023-05-19T02:59:37.450Z,10.45
2023-05-19T03:02:04.423Z,10.42
2023-05-19T03:04:31.076Z,10.40
2023-05-19T03:06:57.845Z,10.38
2023-05-19T03:09:24.625Z,10.44
2023-05-19T03:11:53.681Z,10.45
2023-05-19T03:14:23.951Z,10.43
2023-05-19T03:16:51.032Z,10.38
2023-05-19T03:19:20.313Z,10.42
2023-05-19T03:21:47.600Z,10.39
2023-05-19T03:24:14.230Z,10.37
2023-05-19T03:26:43.235Z,10.37
2023-05-19T03:29:10.029Z,10.36
2023-05-19T03:31:36.742Z,10.34
2023-05-19T03:34:05.633Z,10.39
2023-05-19T03:36:32.357Z,10.32
2023-05-19T03:38:59.312Z,10.35
2023-05-19T03:41:26.023Z,10.30
2023-05-19T03:43:55.104Z,10.32
2023-05-19T03:46:21.814Z,10.35
2023-05-19T03:48:50.808Z,10.30
2023-05-19T03:51:17.607Z,10.32
2023-05-19T03:53:48.758Z,10.25
2023-05-19T03:56:18.139Z,10.34
2023-05-19T03:58:49.721Z,10.26
2023-05-19T04:01:16.341Z,10.27
2023-05-19T04:03:43.027Z,10.36
2023-05-19T04:06:09.664Z,10.25
2023-05-19T04:08:39.032Z,10.24
2023-05-19T04:11:05.617Z,10.23
2023-05-19T04:13:37.852Z,10.24
2023-05-19T04:16:04.809Z,10.32
2023-05-19T04:18:33.907Z,10.27
2023-05-19T04:21:00.560Z,10.33
2023-05-19T04:23:29.722Z,10.22
2023-05-19T04:25:59.081Z,10.24
2023-05-19T04:28:30.569Z,10.32
2023-05-19T04:30:58.856Z,10.19
2023-05-19T04:33:29.951Z,10.23
2023-05-19T04:35:57.003Z,10.34
2023-05-19T04:38:30.001Z,10.30
2023-05-19T04:40:56.700Z,10.30
2023-05-19T04:43:23.334Z,10.36
2023-05-19T04:45:51.463Z,10.36
2023-05-19T04:48:18.140Z,10.51
2023-05-19T04:50:44.743Z,10.53
2023-05-19T04:53:11.477Z,10.63
2023-05-19T04:55:40.685Z,10.59
2023-05-19T04:58:12.543Z,10.69
2023-05-19T05:00:39.073Z,10.69
2023-05-19T05:03:07.240Z,10.66
2023-05-19T05:05:34.818Z,10.71
2023-05-19T05:08:01.608Z,10.80
2023-05-19T05:10:30.924Z,10.96
2023-05-19T05:13:00.894Z,10.90
2023-05-19T05:15:28.912Z,10.94
2023-05-19T05:17:56.274Z,11.18
2023-05-19T05:20:28.253Z,11.33
2023-05-19T05:22:55.114Z,11.37
2023-05-19T05:25:22.032Z,11.43
2023-05-19T05:27:51.317Z,11.50
2023-05-19T05:30:20.199Z,11.40
2023-05-19T05:32:49.399Z,11.16
2023-05-19T05:35:16.411Z,11.19
2023-05-19T05:37:42.956Z,11.10
2023-05-19T05:40:15.038Z,11.03
2023-05-19T05:42:46.502Z,11.15
2023-05-19T05:45:15.745Z,11.19
2023-05-19T05:47:47.837Z,10.97
2023-05-19T05:50:17.849Z,11.46
2023-05-19T05:52:48.318Z,11.34
2023-05-19T05:55:17.637Z,11.39
2023-05-19T05:57:44.294Z,11.56
2023-05-19T06:00:17.345Z,11.17
2023-05-19T06:02:51.312Z,11.31
2023-05-19T06:05:18.180Z,11.07
2023-05-19T06:07:47.165Z,11.25
2023-05-19T06:10:18.458Z,11.60
2023-05-19T06:12:48.139Z,11.87
2023-05-19T06:15:14.810Z,11.40
2023-05-19T06:17:41.404Z,11.24
2023-05-19T06:20:13.546Z,11.37
2023-05-19T06:22:40.202Z,11.60
2023-05-19T06:25:09.052Z,11.86
2023-05-19T06:27:38.168Z,11.94
2023-05-19T06:30:08.782Z,11.53
2023-05-19T06:32:35.514Z,11.65
2023-05-19T06:35:02.138Z,11.97
2023-05-19T06:37:31.759Z,11.83
2023-05-19T06:40:00.509Z,12.31
2023-05-19T06:42:29.232Z,11.71
2023-05-19T06:44:55.842Z,12.07
2023-05-19T06:47:22.457Z,11.92
2023-05-19T06:49:55.353Z,11.77
2023-05-19T06:52:22.716Z,11.77
2023-05-19T06:54:51.954Z,11.94
2023-05-19T06:57:18.560Z,12.22
2023-05-19T06:59:47.561Z,12.11
2023-05-19T07:02:14.315Z,12.15
2023-05-19T07:04:41.108Z,12.43
2023-05-19T07:07:10.410Z,12.13
2023-05-19T07:09:39.283Z,12.38
2023-05-19T07:12:06.426Z,12.55
2023-05-19T07:14:36.507Z,12.77
2023-05-19T07:17:05.653Z,12.72
2023-05-19T07:19:35.223Z,12.47
2023-05-19T07:22:01.889Z,12.60
2023-05-19T07:24:31.627Z,12.50
2023-05-19T07:27:00.508Z,12.15
2023-05-19T07:29:27.134Z,12.15
2023-05-19T07:31:57.809Z,12.02
2023-05-19T07:34:24.978Z,12.30
2023-05-19T07:36:52.196Z,12.04
2023-05-19T07:39:19.376Z,12.25
2023-05-19T07:41:52.623Z,12.47
2023-05-19T07:44:19.357Z,12.27
2023-05-19T07:46:46.111Z,12.13
2023-05-19T07:49:12.807Z,11.80
2023-05-19T07:51:39.349Z,12.07
2023-05-19T07:54:06.062Z,11.95
2023-05-19T07:56:32.691Z,11.75
2023-05-19T07:58:59.298Z,11.47
2023-05-19T08:01:26.210Z,11.61
2023-05-19T08:03:55.536Z,11.79
2023-05-19T08:06:22.568Z,11.68
2023-05-19T08:08:49.153Z,11.86
2023-05-19T08:11:15.748Z,12.07
2023-05-19T08:13:42.334Z,12.14
2023-05-19T08:16:08.980Z,12.38
2023-05-19T08:18:37.934Z,12.77
2023-05-19T08:21:09.522Z,13.08
2023-05-19T08:23:38.796Z,13.00
2023-05-19T08:26:07.645Z,13.41
2023-05-19T08:28:36.731Z,13.16
2023-05-19T08:31:03.476Z,12.71
2023-05-19T08:33:32.474Z,12.90
2023-05-19T08:36:03.850Z,13.14
2023-05-19T08:38:33.005Z,13.59
2023-05-19T08:41:02.102Z,13.33
2023-05-19T08:43:31.723Z,14.28
2023-05-19T08:46:00.147Z,13.92
2023-05-19T08:48:29.475Z,14.56
2023-05-19T08:51:11.922Z,14.82
2023-05-19T08:53:45.671Z,14.45
2023-05-19T08:56:18.710Z,15.07
2023-05-19T08:58:49.217Z,15.75
2023-05-19T09:01:18.827Z,14.71
2023-05-19T09:03:47.073Z,14.82
2023-05-19T09:06:13.813Z,14.88
2023-05-19T09:08:41.690Z,14.85
2023-05-19T09:11:09.623Z,15.35
2023-05-19T09:13:36.589Z,14.16
2023-05-19T09:16:06.597Z,14.50
2023-05-19T09:18:41.221Z,14.31
2023-05-19T09:21:10.319Z,14.52
2023-05-19T09:23:36.997Z,15.23
2023-05-19T09:26:08.029Z,15.09
2023-05-19T09:28:37.953Z,15.67
2023-05-19T09:31:04.673Z,15.01
2023-05-19T09:33:33.814Z,14.29
2023-05-19T09:36:03.313Z,13.81
2023-05-19T09:38:32.550Z,13.85
2023-05-19T09:41:00.418Z,13.98
2023-05-19T09:43:33.680Z,13.69
2023-05-19T09:46:04.091Z,14.25
2023-05-19T09:48:35.615Z,14.95
2023-05-19T09:51:08.086Z,15.80
2023-05-19T09:53:35.179Z,15.90
2023-05-19T09:56:03.693Z,16.11
2023-05-19T09:58:37.100Z,15.69
2023-05-19T10:01:04.847Z,15.88
2023-05-19T10:03:34.441Z,16.83
2023-05-19T10:06:04.641Z,15.75
2023-05-19T10:08:32.527Z,16.14
2023-05-19T10:10:59.404Z,15.95
2023-05-19T10:13:27.026Z,15.46
2023-05-19T10:15:58.981Z,15.78
2023-05-19T10:18:29.869Z,16.17
2023-05-19T10:21:00.482Z,16.37
2023-05-19T10:23:30.114Z,16.53
2023-05-19T10:26:00.143Z,16.10
2023-05-19T10:28:38.085Z,16.18
2023-05-19T10:31:07.849Z,15.57
2023-05-19T10:34:15.832Z,15.79
2023-05-19T10:36:49.645Z,16.27
2023-05-19T10:39:28.197Z,16.80
2023-05-19T10:42:29.518Z,16.88
2023-05-19T10:45:22.452Z,16.29
2023-05-19T10:47:51.708Z,15.90
2023-05-19T10:50:20.970Z,16.41
2023-05-19T10:52:55.780Z,16.31
2023-05-19T10:55:49.894Z,16.29
2023-05-19T10:58:56.633Z,16.36
2023-05-19T11:01:31.079Z,16.44
2023-05-19T11:03:57.874Z,15.36
2023-05-19T11:06:28.347Z,15.78
2023-05-19T11:09:02.009Z,15.59
2023-05-19T11:11:44.093Z,15.93
2023-05-19T11:14:16.938Z,16.26
2023-05-19T11:16:50.144Z,16.07
2023-05-19T11:19:30.550Z,15.77
2023-05-19T11:22:08.029Z,16.06
2023-05-19T11:24:40.706Z,16.61
2023-05-19T11:27:37.415Z,16.64
2023-05-19T11:30:07.685Z,17.30
2023-05-19T11:32:36.040Z,17.21
2023-05-19T11:35:05.526Z,17.27
2023-05-19T11:37:33.380Z,17.89
2023-05-19T11:40:07.009Z,17.27
2023-05-19T11:42:37.176Z,16.94
2023-05-19T11:45:06.378Z,17.93
2023-05-19T11:47:46.006Z,17.09
2023-05-19T11:50:21.451Z,17.38
2023-05-19T11:52:48.221Z,17.21
2023-05-19T11:55:23.977Z,17.19
2023-05-19T12:00:31.169Z,17.45
2023-05-19T12:02:58.160Z,18.51
2023-05-19T12:05:29.283Z,17.82
2023-05-19T12:07:56.105Z,17.91
2023-05-19T12:10:33.839Z,16.95
2023-05-19T12:13:02.119Z,17.32
2023-05-19T12:15:32.514Z,17.51
2023-05-19T12:18:05.705Z,17.79
2023-05-19T12:20:37.745Z,17.27
2023-05-19T12:23:07.692Z,16.96
2023-05-19T12:25:38.435Z,17.02
2023-05-19T12:28:05.514Z,17.63
2023-05-19T12:30:35.227Z,17.57
2023-05-19T12:33:07.119Z,16.83
2023-05-19T12:35:34.149Z,17.37
2023-05-19T12:38:07.077Z,17.55
2023-05-19T12:40:37.717Z,16.95
2023-05-19T12:43:05.542Z,17.23
2023-05-19T12:45:39.641Z,17.25
2023-05-19T12:48:11.967Z,16.95
2023-05-19T12:50:40.888Z,17.82
2023-05-19T12:53:14.577Z,17.87
2023-05-19T12:55:45.480Z,17.42
2023-05-19T12:58:15.779Z,17.31
2023-05-19T13:00:43.930Z,17.15
2023-05-19T13:03:22.899Z,16.99
2023-05-19T13:05:51.183Z,16.79
2023-05-19T13:08:23.987Z,16.49
2023-05-19T13:10:53.100Z,16.66
2023-05-19T13:13:24.736Z,16.50
2023-05-19T13:15:53.780Z,16.32
2023-05-19T13:18:20.649Z,16.52
2023-05-19T13:20:49.170Z,16.45
2023-05-19T13:23:16.374Z,16.34
2023-05-19T13:25:43.745Z,16.94
2023-05-19T13:28:12.882Z,16.76
2023-05-19T13:30:43.062Z,16.97
2023-05-19T13:33:09.935Z,17.54
2023-05-19T13:35:41.600Z,17.29
2023-05-19T13:38:10.922Z,16.72
2023-05-19T13:40:38.141Z,16.63
2023-05-19T13:43:05.204Z,16.64
2023-05-19T13:45:32.168Z,16.52
2023-05-19T13:47:58.927Z,16.29
2023-05-19T13:50:25.837Z,16.39
2023-05-19T13:52:52.583Z,16.29
2023-05-19T13:55:22.554Z,16.82
2023-05-19T13:57:49.336Z,16.24
2023-05-19T14:00:17.654Z,16.05
2023-05-19T14:02:44.432Z,16.27
2023-05-19T14:05:11.128Z,15.99
2023-05-19T14:07:40.229Z,15.89
2023-05-19T14:10:09.649Z,15.94
2023-05-19T14:12:51.734Z,15.87
2023-05-19T14:15:26.106Z,15.95
2023-05-19T14:17:55.042Z,16.20
2023-05-19T14:20:21.882Z,16.22
2023-05-19T14:22:48.488Z,16.29
2023-05-19T14:25:17.575Z,16.06
2023-05-19T14:27:44.198Z,16.10
2023-05-19T14:30:11.157Z,16.55
2023-05-19T14:32:37.741Z,16.67
2023-05-19T14:35:06.867Z,16.50
2023-05-19T14:37:33.449Z,16.29
2023-05-19T14:40:02.316Z,16.36
2023-05-19T14:42:33.614Z,16.31
2023-05-19T14:45:00.319Z,15.95
2023-05-19T14:47:29.132Z,15.77
2023-05-19T14:49:58.699Z,15.96
2023-05-19T14:52:26.307Z,15.51
2023-05-19T14:54:56.068Z,15.54
2023-05-19T14:57:22.650Z,15.38
2023-05-19T14:59:49.220Z,15.49
2023-05-19T15:02:18.285Z,15.37
2023-05-19T15:04:44.974Z,15.23
2023-05-19T15:07:13.836Z,15.34
2023-05-19T15:09:45.007Z,15.33
2023-05-19T15:12:16.225Z,15.22
2023-05-19T15:14:45.704Z,15.30
2023-05-19T15:17:12.484Z,15.11
2023-05-19T15:19:42.788Z,15.42
2023-05-19T15:22:09.370Z,15.54
2023-05-19T15:24:38.233Z,15.55
2023-05-19T15:27:05.416Z,15.22
2023-05-19T15:29:34.265Z,15.04
2023-05-19T15:32:01.054Z,14.95
2023-05-19T15:34:29.867Z,15.17
2023-05-19T15:36:56.418Z,15.24
2023-05-19T15:39:23.384Z,15.07
2023-05-19T15:41:53.022Z,15.10
2023-05-19T15:44:19.815Z,14.91
2023-05-19T15:46:46.508Z,14.96
2023-05-19T15:49:15.721Z,14.90
2023-05-19T15:51:42.349Z,14.77
2023-05-19T15:54:08.950Z,14.91
2023-05-19T15:56:37.811Z,14.93
2023-05-19T15:59:06.509Z,14.99
2023-05-19T16:01:35.774Z,14.98
2023-05-19T16:04:03.911Z,14.83
2023-05-19T16:06:33.006Z,14.80
2023-05-19T16:09:02.145Z,14.93
2023-05-19T16:11:30.917Z,14.92
2023-05-19T16:13:59.839Z,14.92
2023-05-19T16:16:26.394Z,14.85
2023-05-19T16:18:55.301Z,14.72
2023-05-19T16:21:22.159Z,14.91
2023-05-19T16:23:50.960Z,14.85
2023-05-19T16:26:17.584Z,14.79
2023-05-19T16:28:44.247Z,14.62
2023-05-19T16:31:15.588Z,14.68
2023-05-19T16:33:44.264Z,14.51
2023-05-19T16:36:13.060Z,14.51
2023-05-19T16:38:41.839Z,14.57
2023-05-19T16:41:13.268Z,14.56
2023-05-19T16:43:42.120Z,14.48
2023-05-19T16:46:13.471Z,14.33
2023-05-19T16:48:42.583Z,14.26
2023-05-19T16:51:09.176Z,14.40
2023-05-19T16:53:35.758Z,14.35
2023-05-19T16:56:02.309Z,14.45
2023-05-19T16:58:30.934Z,14.28
2023-05-19T17:00:59.948Z,14.30
2023-05-19T17:03:26.692Z,14.33
2023-05-19T17:05:55.507Z,14.34
2023-05-19T17:08:22.048Z,14.20
2023-05-19T17:10:50.973Z,14.36
2023-05-19T17:13:17.686Z,14.34
2023-05-19T17:15:44.272Z,14.12
2023-05-19T17:18:12.729Z,14.24
2023-05-19T17:20:39.375Z,14.21
2023-05-19T17:23:06.122Z,14.22
2023-05-19T17:25:35.367Z,14.29
2023-05-19T17:28:04.163Z,14.20
2023-05-19T17:30:31.015Z,14.09
2023-05-19T17:33:00.460Z,14.17
2023-05-19T17:35:28.459Z,14.22
2023-05-19T17:37:55.544Z,14.25
2023-05-19T17:40:22.197Z,14.06
2023-05-19T17:42:48.833Z,14.14
2023-05-19T17:45:17.853Z,14.00
2023-05-19T17:47:47.441Z,14.05
2023-05-19T17:50:13.993Z,13.84
2023-05-19T17:52:43.178Z,13.95
2023-05-19T17:55:12.925Z,13.94
2023-05-19T17:57:44.965Z,13.91
2023-05-19T18:00:14.295Z,13.90
2023-05-19T18:02:43.487Z,13.92
2023-05-19T18:05:10.913Z,13.80
2023-05-19T18:07:44.110Z,13.89
2023-05-19T18:10:16.224Z,13.82
2023-05-19T18:12:42.883Z,13.83
2023-05-19T18:15:11.487Z,13.75
2023-05-19T18:17:40.424Z,13.70
2023-05-19T18:20:12.791Z,13.68
2023-05-19T18:22:41.707Z,13.64
2023-05-19T18:25:11.624Z,13.65
2023-05-19T18:27:42.621Z,13.70
2023-05-19T18:30:09.420Z,13.66
2023-05-19T18:32:38.627Z,13.63
2023-05-19T18:35:05.803Z,13.58
2023-05-19T18:37:35.247Z,13.52
2023-05-19T18:40:06.678Z,13.52
2023-05-19T18:42:33.311Z,13.57
2023-05-19T18:44:59.979Z,13.53
2023-05-19T18:47:26.725Z,13.35
2023-05-19T18:49:58.910Z,13.36
2023-05-19T18:52:31.346Z,13.44
2023-05-19T18:55:00.536Z,13.31
2023-05-19T18:57:27.637Z,13.27
2023-05-19T18:59:54.252Z,13.26
2023-05-19T19:02:23.312Z,13.29
2023-05-19T19:04:50.267Z,13.27
2023-05-19T19:07:17.139Z,13.22
2023-05-19T19:09:43.956Z,13.25
2023-05-19T19:12:11.036Z,13.28
2023-05-19T19:14:38.546Z,13.25
2023-05-19T19:17:07.956Z,13.16
2023-05-19T19:19:34.849Z,13.08
2023-05-19T19:22:06.230Z,13.16
2023-05-19T19:24:32.871Z,13.13
2023-05-19T19:26:59.408Z,13.11
2023-05-19T19:29:28.466Z,13.07
2023-05-19T19:31:57.315Z,12.99
2023-05-19T19:34:26.320Z,13.06
2023-05-19T19:36:55.373Z,13.07
2023-05-19T19:39:24.934Z,12.99
2023-05-19T19:41:51.557Z,13.00
2023-05-19T19:44:18.199Z,13.09
2023-05-19T19:46:47.572Z,13.07
2023-05-19T19:49:16.599Z,12.92
2023-05-19T19:51:45.822Z,12.99
2023-05-19T19:54:12.450Z,12.97
2023-05-19T19:56:41.526Z,12.93
2023-05-19T19:59:08.207Z,12.94
2023-05-19T20:01:34.808Z,12.93
2023-05-19T20:04:01.740Z,12.87
2023-05-19T20:06:28.389Z,12.92
2023-05-19T20:08:55.030Z,12.82
2023-05-19T20:11:23.759Z,12.77
2023-05-19T20:13:52.739Z,12.85
2023-05-19T20:16:22.132Z,12.81
2023-05-19T20:18:51.818Z,12.75
2023-05-19T20:21:18.459Z,12.72
2023-05-19T20:23:47.280Z,12.86
2023-05-19T20:26:18.401Z,12.79
2023-05-19T20:28:47.295Z,12.84
2023-05-19T20:31:14.510Z,12.74
2023-05-19T20:33:45.846Z,12.67
2023-05-19T20:36:15.508Z,12.72
2023-05-19T20:38:42.215Z,12.67
2023-05-19T20:41:08.876Z,12.60
2023-05-19T20:43:40.242Z,12.69
2023-05-19T20:46:06.886Z,12.68
2023-05-19T20:48:36.543Z,12.65
2023-05-19T20:51:03.292Z,12.69
2023-05-19T20:53:29.917Z,12.56
2023-05-19T20:55:56.553Z,12.58
2023-05-19T20:58:26.788Z,12.61
2023-05-19T21:00:57.942Z,12.56
2023-05-19T21:03:28.536Z,12.61
2023-05-19T21:05:57.975Z,12.68
2023-05-19T21:08:26.423Z,12.66
2023-05-19T21:10:55.841Z,12.60
2023-05-19T21:13:22.364Z,12.64
2023-05-19T21:15:48.932Z,12.50
2023-05-19T21:18:17.857Z,12.56
2023-05-19T21:20:47.554Z,12.52
2023-05-19T21:23:14.151Z,12.60
2023-05-19T21:25:45.675Z,12.54
2023-05-19T21:28:12.422Z,12.56
2023-05-19T21:30:39.005Z,12.55
2023-05-19T21:33:07.913Z,12.52
2023-05-19T21:35:34.536Z,12.48
2023-05-19T21:38:11.910Z,12.45
2023-05-19T21:40:38.923Z,12.52
2023-05-19T21:43:11.109Z,12.51
2023-05-19T21:45:39.960Z,12.45
2023-05-19T21:48:06.660Z,12.44
2023-05-19T21:50:39.004Z,12.38
2023-05-19T21:53:05.707Z,12.41
2023-05-19T21:55:37.012Z,12.39
2023-05-19T21:58:03.680Z,12.46
2023-05-19T22:00:33.253Z,12.35
2023-05-19T22:03:00.167Z,12.40
2023-05-19T22:05:28.956Z,12.40
2023-05-19T22:07:55.875Z,12.40
2023-05-19T22:10:26.914Z,12.43
2023-05-19T22:12:56.891Z,12.37
2023-05-19T22:15:23.693Z,12.38
2023-05-19T22:17:54.930Z,12.43
2023-05-19T22:20:21.533Z,12.43
2023-05-19T22:22:48.132Z,12.41
2023-05-19T22:25:17.092Z,12.43
2023-05-19T22:27:43.687Z,12.40
2023-05-19T22:30:12.861Z,12.34
2023-05-19T22:32:42.016Z,12.40
2023-05-19T22:35:08.902Z,12.35
2023-05-19T22:37:35.511Z,12.37
2023-05-19T22:40:02.047Z,12.37
2023-05-19T22:42:28.653Z,12.39
2023-05-19T22:44:55.236Z,12.32
2023-05-19T22:47:21.960Z,12.30
2023-05-19T22:49:50.352Z,12.34
2023-05-19T22:52:17.502Z,12.28
2023-05-19T22:54:44.424Z,12.27
2023-05-19T22:57:11.748Z,12.30
2023-05-19T22:59:43.428Z,12.22
2023-05-19T23:02:10.062Z,12.26
2023-05-19T23:04:36.676Z,12.27
2023-05-19T23:07:03.339Z,12.26
2023-05-19T23:09:30.625Z,12.30
2023-05-19T23:12:02.015Z,12.26
2023-05-19T23:14:28.556Z,12.19
2023-05-19T23:16:55.110Z,12.16
2023-05-19T23:19:24.333Z,12.18
2023-05-19T23:21:53.244Z,12.13
2023-05-19T23:24:22.196Z,12.10
2023-05-19T23:26:50.789Z,12.04
2023-05-19T23:29:19.597Z,12.08
2023-05-19T23:31:46.223Z,12.05
2023-05-19T23:34:12.944Z,11.96
2023-05-19T23:36:41.928Z,12.03
2023-05-19T23:39:11.352Z,12.05
2023-05-19T23:41:40.130Z,12.07
2023-05-19T23:44:10.539Z,12.01
2023-05-19T23:46:37.146Z,12.00
2023-05-19T23:49:03.878Z,12.03
2023-05-19T23:51:32.775Z,12.01
2023-05-19T23:53:59.378Z,12.05
2023-05-19T23:56:28.483Z,12.06
2023-05-19T23:58:55.141Z,12.06
